»·PEaware :: DAL86 L35-KVGT

DAL86 :: L35-KVGT

FLIGHT INFORMATION

Flight Status: Arrived
Operator:
Delta Air Lines
More flights by this operator :: More flights under this callsign
Pilot: Ernesto F. (37009)
Aircraft: BOEING 737-900
(B739)
More flights by this aircraft type
Origin: L35 Big Bear City
United States
Destination: KVGT North Las Vegas
United States
More flights between these airports :: More routes between these airports
Route: OKACO V386 SOGGI MISEN NTNDO1
File this flight plan on PilotEdge
Remarks: RMK / SIMBRIEF
Altitude:
(Current/Filed)
25,000ft
Speed:
(Current/Filed)
446kts
Departed: 16-Aug-23 01:25 PM
Arrived: 16-Aug-23 02:01 PM
Distance/Time
Traveled:
142nm/0:36
Distance/Time
To Go:
Arrived

Flight Plot

Page will automatically refresh every two minutes.

Flight plan parsing failed; only flown route is shown


Map Options




Map Legend


Flown Route
Filed Route
Departure Airport
Arrival Airport
Navaid (VOR, NDB)
Fix

Horizontal Profiles

Position Reports

Time Latitude Longitude Heading Altitude Ground
Speed
16-Aug-23 13:08 34.262829 -116.853893 100 6762ft 0kts
16-Aug-23 13:09 34.262829 -116.853893 100 6762ft 0kts
16-Aug-23 13:10 34.262829 -116.853893 100 6762ft 0kts
16-Aug-23 13:11 34.262829 -116.853893 100 6762ft 0kts
16-Aug-23 13:12 34.262829 -116.853893 100 6762ft 0kts
16-Aug-23 13:13 34.262829 -116.853893 100 6762ft 0kts
16-Aug-23 13:14 34.262829 -116.853893 100 6762ft 0kts
16-Aug-23 13:15 34.262829 -116.853893 100 6762ft 0kts
16-Aug-23 13:16 34.262829 -116.853893 100 6762ft 0kts
16-Aug-23 13:17 34.262829 -116.853893 100 6762ft 0kts
16-Aug-23 13:18 34.262829 -116.853893 100 6762ft 0kts
16-Aug-23 13:19 34.262829 -116.853893 100 6762ft 0kts
16-Aug-23 13:20 34.262829 -116.853893 100 6762ft 0kts
16-Aug-23 13:21 34.263186 -116.852429 74 6762ft 15kts
16-Aug-23 13:22 34.263298 -116.846615 55 6759ft 0kts
16-Aug-23 13:23 34.263298 -116.846615 55 6759ft 0kts
16-Aug-23 13:24 34.263830 -116.848400 268 6761ft 47kts
16-Aug-23 13:25 34.262378 -116.894972 256 7893ft 176kts
16-Aug-23 13:26 34.227451 -116.891848 106 10009ft 182kts
16-Aug-23 13:27 34.219327 -116.823847 70 10792ft 253kts
16-Aug-23 13:28 34.240850 -116.733158 78 11796ft 317kts
16-Aug-23 13:29 34.276731 -116.623138 35 12648ft 395kts
16-Aug-23 13:30 34.382288 -116.629923 340 15066ft 406kts
16-Aug-23 13:31 34.492297 -116.669797 356 17205ft 421kts
16-Aug-23 13:32 34.605837 -116.632120 20 19131ft 433kts
16-Aug-23 13:33 34.720155 -116.579355 20 20939ft 445kts
16-Aug-23 13:34 34.837582 -116.525639 20 22486ft 456kts
16-Aug-23 13:35 34.957314 -116.470671 20 23875ft 465kts
16-Aug-23 13:36 35.063420 -116.386061 63 25008ft 474kts
16-Aug-23 13:37 35.088717 -116.227589 82 24994ft 477kts
16-Aug-23 13:38 35.106913 -116.068268 82 24991ft 474kts
16-Aug-23 13:39 35.125795 -115.908522 82 24998ft 475kts
16-Aug-23 13:40 35.144478 -115.748477 82 24993ft 476kts
16-Aug-23 13:41 35.162932 -115.588396 82 24862ft 477kts
16-Aug-23 13:42 35.181015 -115.429693 82 21618ft 459kts
16-Aug-23 13:43 35.198013 -115.278718 82 18383ft 439kts
16-Aug-23 13:44 35.214641 -115.134113 76 15267ft 420kts
16-Aug-23 13:45 35.293801 -115.043687 23 12481ft 390kts
16-Aug-23 13:46 35.386852 -114.992403 24 10450ft 328kts
16-Aug-23 13:47 35.465140 -114.954739 356 9928ft 282kts
16-Aug-23 13:48 35.536903 -114.982707 340 9320ft 275kts
16-Aug-23 13:49 35.613692 -115.015226 343 8309ft 294kts
16-Aug-23 13:50 35.691050 -115.031189 351 7111ft 268kts
16-Aug-23 13:51 35.762193 -115.043940 351 6976ft 258kts
16-Aug-23 13:52 35.833325 -115.056641 351 6976ft 258kts
16-Aug-23 13:53 35.904316 -115.069315 351 6949ft 248kts
16-Aug-23 13:54 35.967524 -115.080496 351 6967ft 224kts
16-Aug-23 13:55 36.028665 -115.091275 351 6979ft 213kts
16-Aug-23 13:56 36.081569 -115.100493 351 6960ft 185kts
16-Aug-23 13:57 36.127400 -115.109452 343 6438ft 153kts
16-Aug-23 13:58 36.164519 -115.139105 308 3845ft 166kts
16-Aug-23 13:59 36.193802 -115.176668 311 2523ft 143kts
16-Aug-23 14:00 36.212466 -115.199896 314 2203ft 14kts
16-Aug-23 14:01 36.212237 -115.200750 132 2205ft 5kts
16-Aug-23 14:02 36.211302 -115.199566 134 2201ft 17kts
16-Aug-23 14:03 36.209870 -115.199014 222 2199ft 0kts

Navigation Log

Ident Type
Flight plan parsing failed, navigation log unavailable